createdAt,value
2022-11-18T00:01:14.796Z,-0.29
2022-11-18T00:03:42.808Z,-0.57
2022-11-18T00:06:15.213Z,-0.56
2022-11-18T00:08:41.991Z,-0.31
2022-11-18T00:11:11.087Z,-0.39
2022-11-18T00:13:56.602Z,-0.66
2022-11-18T00:16:23.499Z,-0.58
2022-11-18T00:18:50.536Z,-0.55
2022-11-18T00:21:17.115Z,-0.50
2022-11-18T00:23:43.633Z,-0.70
2022-11-18T00:26:13.434Z,-0.83
2022-11-18T00:28:40.834Z,-0.88
2022-11-18T00:31:12.878Z,-0.66
2022-11-18T00:33:39.693Z,-0.85
2022-11-18T00:36:09.319Z,-0.80
2022-11-18T00:38:35.827Z,-0.79
2022-11-18T00:41:10.251Z,-0.72
2022-11-18T00:43:37.570Z,-0.82
2022-11-18T00:46:05.178Z,-0.91
2022-11-18T00:48:31.606Z,-0.85
2022-11-18T00:51:06.435Z,-0.87
2022-11-18T00:53:32.831Z,-0.67
2022-11-18T00:55:59.236Z,-0.61
2022-11-18T00:58:25.742Z,-0.59
2022-11-18T01:00:52.898Z,-0.72
2022-11-18T01:03:20.741Z,-0.76
2022-11-18T01:05:47.484Z,-0.62
2022-11-18T01:08:14.795Z,-0.79
2022-11-18T01:10:41.503Z,-0.80
2022-11-18T01:13:22.966Z,-0.54
2022-11-18T01:15:54.830Z,-0.78
2022-11-18T01:18:26.767Z,-0.79
2022-11-18T01:20:53.575Z,-0.75
2022-11-18T01:23:21.081Z,-0.85
2022-11-18T01:25:49.153Z,-0.93
2022-11-18T01:28:23.042Z,-0.72
2022-11-18T01:30:50.336Z,-0.85
2022-11-18T01:33:16.803Z,-0.86
2022-11-18T01:35:44.565Z,-1.09
2022-11-18T01:38:13.477Z,-0.93
2022-11-18T01:40:40.372Z,-0.91
2022-11-18T01:43:13.850Z,-0.80
2022-11-18T01:45:42.351Z,-0.74
2022-11-18T01:48:20.655Z,-1.20
2022-11-18T01:50:54.329Z,-1.01
2022-11-18T01:53:28.841Z,-0.96
2022-11-18T01:55:57.907Z,-1.03
2022-11-18T01:58:42.314Z,-0.87
2022-11-18T02:01:09.319Z,-1.14
2022-11-18T02:03:36.605Z,-1.07
2022-11-18T02:09:53.041Z,-1.30
2022-11-18T02:12:20.654Z,-1.17
2022-11-18T02:14:47.957Z,-1.00
2022-11-18T02:17:33.178Z,-1.19
2022-11-18T02:20:15.505Z,-1.11
2022-11-18T02:23:00.760Z,-0.92
2022-11-18T02:26:04.863Z,-1.07
2022-11-18T02:28:50.218Z,-1.16
2022-11-18T02:31:25.627Z,-1.42
2022-11-18T02:34:03.701Z,-1.46
2022-11-18T02:36:55.166Z,-1.39
2022-11-18T02:39:36.539Z,-1.64
2022-11-18T02:42:07.951Z,-1.52
2022-11-18T02:44:38.291Z,-1.25
2022-11-18T02:47:08.086Z,-1.48
2022-11-18T02:49:43.265Z,-1.39
2022-11-18T02:52:11.871Z,-1.32
2022-11-18T02:54:41.819Z,-1.46
2022-11-18T02:57:09.112Z,-1.34
2022-11-18T02:59:35.625Z,-1.35
2022-11-18T03:02:02.132Z,-1.17
2022-11-18T03:04:29.409Z,-1.36
2022-11-18T03:07:11.130Z,-1.51
2022-11-18T03:09:40.756Z,-1.55
2022-11-18T03:12:24.203Z,-1.47
2022-11-18T03:15:05.915Z,-1.54
2022-11-18T03:17:35.028Z,-1.45
2022-11-18T03:20:10.472Z,-1.51
2022-11-18T03:22:47.067Z,-1.39
2022-11-18T03:25:28.864Z,-1.67
2022-11-18T03:28:14.751Z,-1.64
2022-11-18T03:30:59.084Z,-1.55
2022-11-18T03:33:33.015Z,-1.72
2022-11-18T03:36:04.083Z,-1.79
2022-11-18T03:38:36.575Z,-1.65
2022-11-18T03:41:06.501Z,-1.90
2022-11-18T03:43:39.280Z,-1.63
2022-11-18T03:46:16.908Z,-1.61
2022-11-18T03:48:52.963Z,-1.77
2022-11-18T03:51:26.277Z,-1.79
2022-11-18T03:54:01.047Z,-1.75
2022-11-18T03:56:34.919Z,-1.44
2022-11-18T03:59:10.392Z,-1.62
2022-11-18T04:01:45.890Z,-1.53
2022-11-18T04:04:13.382Z,-1.68
2022-11-18T04:06:47.175Z,-1.85
2022-11-18T04:09:37.712Z,-1.81
2022-11-18T04:12:18.669Z,-1.80
2022-11-18T04:14:47.942Z,-1.66
2022-11-18T04:17:19.738Z,-1.66
2022-11-18T04:19:46.182Z,-1.71
2022-11-18T04:22:12.865Z,-1.85
2022-11-18T04:24:39.845Z,-1.95
2022-11-18T04:27:07.145Z,-2.01
2022-11-18T04:29:34.202Z,-1.94
2022-11-18T04:32:01.826Z,-1.76
2022-11-18T04:34:28.622Z,-1.66
2022-11-18T04:36:55.091Z,-2.16
2022-11-18T04:39:21.512Z,-1.92
2022-11-18T04:41:56.715Z,-1.77
2022-11-18T04:44:30.116Z,-1.98
2022-11-18T04:46:58.027Z,-2.07
2022-11-18T04:49:25.915Z,-1.98
2022-11-18T04:51:52.775Z,-1.98
2022-11-18T04:54:20.023Z,-1.95
2022-11-18T04:56:49.714Z,-1.71
2022-11-18T04:59:19.654Z,-1.81
2022-11-18T05:01:46.509Z,-1.79
2022-11-18T05:04:19.840Z,-1.93
2022-11-18T05:06:46.536Z,-2.22
2022-11-18T05:09:13.250Z,-2.18
2022-11-18T05:11:58.365Z,-2.11
2022-11-18T05:14:30.894Z,-1.91
2022-11-18T05:16:59.331Z,-1.88
2022-11-18T05:19:25.944Z,-2.11
2022-11-18T05:21:53.199Z,-1.86
2022-11-18T05:24:19.986Z,-1.83
2022-11-18T05:26:46.814Z,-2.02
2022-11-18T05:29:13.538Z,-1.88
2022-11-18T05:31:39.935Z,-2.23
2022-11-18T05:34:06.386Z,-2.33
2022-11-18T05:36:32.833Z,-2.18
2022-11-18T05:38:59.965Z,-2.29
2022-11-18T05:41:44.848Z,-2.16
2022-11-18T05:44:11.314Z,-2.14
2022-11-18T05:46:37.785Z,-2.14
2022-11-18T05:49:04.245Z,-1.97
2022-11-18T05:51:30.708Z,-2.27
2022-11-18T05:53:57.636Z,-2.30
2022-11-18T05:56:38.422Z,-2.50
2022-11-18T05:59:05.391Z,-2.59
2022-11-18T06:01:42.009Z,-2.46
2022-11-18T06:04:15.048Z,-2.42
2022-11-18T06:06:43.052Z,-2.09
2022-11-18T06:09:10.628Z,-2.25
2022-11-18T06:11:43.249Z,-2.18
2022-11-18T06:14:16.285Z,-2.06
2022-11-18T06:16:49.160Z,-2.14
2022-11-18T06:19:16.904Z,-2.20
2022-11-18T06:21:45.070Z,-2.09
2022-11-18T06:24:12.454Z,-2.27
2022-11-18T06:26:39.510Z,-2.11
2022-11-18T06:29:08.346Z,-1.96
2022-11-18T06:31:34.806Z,-2.12
2022-11-18T06:34:01.456Z,-1.89
2022-11-18T06:36:27.854Z,-2.05
2022-11-18T06:38:54.333Z,-2.46
2022-11-18T06:41:20.781Z,-2.33
2022-11-18T06:43:47.243Z,-2.47
2022-11-18T06:46:34.538Z,-2.44
2022-11-18T06:49:01.587Z,-2.40
2022-11-18T06:51:28.903Z,-2.29
2022-11-18T06:53:55.457Z,-2.44
2022-11-18T06:56:23.088Z,-2.28
2022-11-18T06:58:54.789Z,-2.27
2022-11-18T07:01:23.741Z,-2.18
2022-11-18T07:03:50.766Z,-2.17
2022-11-18T07:06:21.202Z,-2.51
2022-11-18T07:08:47.857Z,-2.43
2022-11-18T07:11:17.145Z,-2.46
2022-11-18T07:13:44.196Z,-2.65
2022-11-18T07:16:19.527Z,-2.60
2022-11-18T07:18:47.449Z,-2.78
2022-11-18T07:21:16.499Z,-2.82
2022-11-18T07:23:43.226Z,-2.84
2022-11-18T07:26:10.324Z,-2.89
2022-11-18T07:28:37.109Z,-2.53
2022-11-18T07:31:12.294Z,-3.07
2022-11-18T07:33:40.218Z,-2.81
2022-11-18T07:36:12.516Z,-2.75
2022-11-18T07:38:39.377Z,-2.69
2022-11-18T07:41:13.774Z,-2.88
2022-11-18T07:43:40.652Z,-2.79
2022-11-18T07:46:16.862Z,-2.82
2022-11-18T07:48:45.337Z,-2.72
2022-11-18T07:51:12.551Z,-2.85
2022-11-18T07:53:39.133Z,-2.92
2022-11-18T07:56:08.107Z,-2.95
2022-11-18T07:58:35.656Z,-2.92
2022-11-18T08:01:18.986Z,-2.86
2022-11-18T08:03:46.437Z,-2.61
2022-11-18T08:06:16.439Z,-2.88
2022-11-18T08:08:43.469Z,-2.72
2022-11-18T08:11:16.292Z,-2.86
2022-11-18T08:13:46.994Z,-2.83
2022-11-18T08:16:18.777Z,-2.69
2022-11-18T08:18:45.565Z,-2.59
2022-11-18T08:21:12.965Z,-2.67
2022-11-18T08:23:42.289Z,-2.66
2022-11-18T08:26:16.101Z,-2.56
2022-11-18T08:28:43.498Z,-2.38
2022-11-18T08:31:10.906Z,-2.36
2022-11-18T08:33:37.993Z,-2.42
2022-11-18T08:36:18.393Z,-2.61
2022-11-18T08:38:44.933Z,-2.61
2022-11-18T08:41:14.275Z,-2.68
2022-11-18T08:43:40.706Z,-2.67
2022-11-18T08:46:07.226Z,-2.59
2022-11-18T08:48:33.790Z,-2.65
2022-11-18T08:51:01.015Z,-2.43
2022-11-18T08:53:27.506Z,-2.50
2022-11-18T08:55:57.855Z,-2.81
2022-11-18T08:58:25.213Z,-2.82
2022-11-18T09:00:51.749Z,-2.58
2022-11-18T09:03:18.737Z,-2.42
2022-11-18T09:05:45.749Z,-2.74
2022-11-18T09:08:12.277Z,-2.67
2022-11-18T09:10:39.041Z,-2.60
2022-11-18T09:13:25.207Z,-2.65
2022-11-18T09:15:51.985Z,-2.55
2022-11-18T09:18:18.464Z,-2.42
2022-11-18T09:20:56.922Z,-2.61
2022-11-18T09:23:23.735Z,-2.83
2022-11-18T09:26:00.168Z,-2.63
2022-11-18T09:28:26.961Z,-2.96
2022-11-18T09:30:53.371Z,-2.90
2022-11-18T09:33:20.732Z,-3.08
2022-11-18T09:35:47.556Z,-2.82
2022-11-18T09:38:14.049Z,-2.98
2022-11-18T09:41:10.392Z,-2.84
2022-11-18T09:43:50.064Z,-2.93
2022-11-18T09:46:27.618Z,-2.60
2022-11-18T09:49:12.699Z,-2.75
2022-11-18T09:51:45.137Z,-2.64
2022-11-18T09:54:17.937Z,-2.81
2022-11-18T09:56:44.517Z,-2.66
2022-11-18T09:59:14.273Z,-2.67
2022-11-18T10:01:42.726Z,-2.87
2022-11-18T10:04:15.576Z,-2.72
2022-11-18T10:06:42.542Z,-2.64
2022-11-18T10:09:30.452Z,-2.87
2022-11-18T10:12:08.490Z,-2.95
2022-11-18T10:15:02.607Z,-2.96
2022-11-18T10:17:41.239Z,-2.95
2022-11-18T10:20:22.779Z,-2.67
2022-11-18T10:22:54.496Z,-2.73
2022-11-18T10:25:21.164Z,-3.34
2022-11-18T10:27:49.523Z,-2.84
2022-11-18T10:30:21.564Z,-2.64
2022-11-18T10:33:17.559Z,-2.84
2022-11-18T10:35:44.032Z,-2.82
2022-11-18T10:38:13.436Z,-2.86
2022-11-18T10:41:00.505Z,-2.69
2022-11-18T10:43:50.337Z,-2.86
2022-11-18T10:46:28.584Z,-3.16
2022-11-18T10:49:12.621Z,-2.89
2022-11-18T10:52:14.932Z,-2.81
2022-11-18T10:54:42.336Z,-2.83
2022-11-18T10:57:23.866Z,-2.85
2022-11-18T10:59:57.247Z,-2.77
2022-11-18T11:02:32.825Z,-2.79
2022-11-18T11:05:02.777Z,-2.54
2022-11-18T11:07:32.693Z,-2.84
2022-11-18T11:10:23.427Z,-3.20
2022-11-18T11:12:59.227Z,-3.00
2022-11-18T11:15:48.308Z,-2.92
2022-11-18T11:18:39.412Z,-3.00
2022-11-18T11:21:13.934Z,-3.04
2022-11-18T11:23:41.588Z,-3.04
2022-11-18T11:29:10.501Z,-2.49
2022-11-18T11:31:46.200Z,-2.75
2022-11-18T11:34:43.064Z,-2.68
2022-11-18T11:37:09.429Z,-2.65
2022-11-18T11:40:11.306Z,-2.30
2022-11-18T11:42:43.671Z,-2.40
2022-11-18T11:45:28.703Z,-2.42
2022-11-18T11:48:03.123Z,-2.29
2022-11-18T11:51:03.454Z,-2.15
2022-11-18T11:54:04.833Z,-2.39
2022-11-18T11:56:33.939Z,-2.35
2022-11-18T11:59:18.617Z,-1.99
2022-11-18T12:02:09.653Z,-2.08
2022-11-18T12:04:42.475Z,-2.46
2022-11-18T12:07:17.194Z,-2.31
2022-11-18T12:10:06.712Z,-2.00
2022-11-18T12:12:50.211Z,-2.04
2022-11-18T12:15:26.025Z,-2.37
2022-11-18T12:18:04.233Z,-2.58
2022-11-18T12:20:44.869Z,-2.48
2022-11-18T12:23:17.785Z,-2.54
2022-11-18T12:25:52.968Z,-2.22
2022-11-18T12:28:24.852Z,-2.14
2022-11-18T12:31:18.025Z,-2.34
2022-11-18T12:34:02.107Z,-2.24
2022-11-18T12:36:34.235Z,-2.50
2022-11-18T12:39:25.601Z,-2.38
2022-11-18T12:42:11.823Z,-2.23
2022-11-18T12:44:39.446Z,-2.40
2022-11-18T12:47:10.678Z,-2.45
2022-11-18T12:49:37.033Z,-2.53
2022-11-18T12:52:29.074Z,-2.24
2022-11-18T12:55:02.847Z,-2.03
2022-11-18T12:57:32.647Z,-1.90
2022-11-18T13:00:14.861Z,-2.47
2022-11-18T13:02:54.690Z,-2.33
2022-11-18T13:05:23.413Z,-2.11
2022-11-18T13:08:12.332Z,-2.49
2022-11-18T13:11:37.080Z,-2.36
2022-11-18T13:14:26.297Z,-2.47
2022-11-18T13:17:11.351Z,-2.46
2022-11-18T13:19:37.834Z,-2.52
2022-11-18T13:22:22.611Z,-2.28
2022-11-18T13:24:52.119Z,-2.33
2022-11-18T13:27:30.500Z,-2.39
2022-11-18T13:30:10.026Z,-2.47
2022-11-18T13:32:36.585Z,-2.55
2022-11-18T13:35:13.598Z,-2.20
2022-11-18T13:37:59.144Z,-2.34
2022-11-18T13:40:29.574Z,-2.29
2022-11-18T13:42:56.210Z,-2.20
2022-11-18T13:45:28.160Z,-2.35
2022-11-18T13:48:05.667Z,-2.37
2022-11-18T13:50:51.159Z,-2.31
2022-11-18T13:53:26.382Z,-2.39
2022-11-18T13:56:06.014Z,-2.26
2022-11-18T13:59:02.652Z,-2.17
2022-11-18T14:01:28.672Z,-2.11
2022-11-18T14:04:02.162Z,-2.30
2022-11-18T14:06:31.921Z,-2.00
2022-11-18T14:09:06.069Z,-2.07
2022-11-18T14:11:42.075Z,-2.08
2022-11-18T14:14:27.024Z,-2.30
2022-11-18T14:16:53.710Z,-2.41
2022-11-18T14:19:32.315Z,-2.35
2022-11-18T14:22:13.174Z,-2.27
2022-11-18T14:24:40.754Z,-2.23
2022-11-18T14:27:28.624Z,-2.37
2022-11-18T14:29:55.609Z,-2.28
2022-11-18T14:32:23.364Z,-2.34
2022-11-18T14:35:00.014Z,-2.39
2022-11-18T14:37:27.119Z,-2.50
2022-11-18T14:39:57.948Z,-2.38
2022-11-18T14:42:25.019Z,-2.48
2022-11-18T14:44:51.448Z,-2.54
2022-11-18T14:47:30.267Z,-2.53
2022-11-18T14:49:56.663Z,-2.55
2022-11-18T14:52:23.087Z,-2.66
2022-11-18T14:54:49.546Z,-2.45
2022-11-18T14:57:17.554Z,-2.43
2022-11-18T14:59:44.036Z,-2.34
2022-11-18T15:02:16.585Z,-2.51
2022-11-18T15:04:43.538Z,-2.45
2022-11-18T15:07:18.522Z,-2.46
2022-11-18T15:09:49.515Z,-2.44
2022-11-18T15:12:15.921Z,-2.61
2022-11-18T15:14:42.318Z,-2.63
2022-11-18T15:17:11.956Z,-2.73
2022-11-18T15:19:38.412Z,-2.65
2022-11-18T15:22:04.815Z,-2.42
2022-11-18T15:24:31.561Z,-2.46
2022-11-18T15:26:57.953Z,-2.69
2022-11-18T15:29:25.353Z,-2.61
2022-11-18T15:31:52.213Z,-2.62
2022-11-18T15:34:20.427Z,-2.44
2022-11-18T15:36:47.749Z,-2.52
2022-11-18T15:39:14.178Z,-2.88
2022-11-18T15:41:42.892Z,-2.82
2022-11-18T15:44:10.610Z,-2.82
2022-11-18T15:46:37.035Z,-2.70
2022-11-18T15:49:04.356Z,-2.74
2022-11-18T15:51:31.542Z,-2.64
2022-11-18T15:53:58.478Z,-2.71
2022-11-18T15:56:30.363Z,-2.59
2022-11-18T15:59:06.775Z,-2.65
2022-11-18T16:01:35.656Z,-2.76
2022-11-18T16:04:03.029Z,-2.67
2022-11-18T16:06:30.009Z,-2.59
2022-11-18T16:09:00.037Z,-2.87
2022-11-18T16:11:46.340Z,-2.71
2022-11-18T16:14:14.217Z,-2.84
2022-11-18T16:16:42.102Z,-2.62
2022-11-18T16:19:11.135Z,-2.72
2022-11-18T16:21:43.481Z,-2.65
2022-11-18T16:24:18.930Z,-2.43
2022-11-18T16:26:45.634Z,-2.54
2022-11-18T16:29:12.874Z,-2.63
2022-11-18T16:31:43.639Z,-2.45
2022-11-18T16:34:23.927Z,-2.46
2022-11-18T16:36:52.737Z,-2.50
2022-11-18T16:39:25.798Z,-2.68
2022-11-18T16:42:07.281Z,-2.60
2022-11-18T16:44:35.060Z,-2.38
2022-11-18T16:47:01.717Z,-2.49
2022-11-18T16:49:28.350Z,-2.45
2022-11-18T16:51:56.572Z,-2.50
2022-11-18T16:54:24.608Z,-2.71
2022-11-18T16:56:52.523Z,-2.56
2022-11-18T16:59:24.063Z,-2.58
2022-11-18T17:01:52.288Z,-2.70
2022-11-18T17:04:19.740Z,-2.70
2022-11-18T17:06:46.568Z,-2.64
2022-11-18T17:09:18.731Z,-2.57
2022-11-18T17:11:45.493Z,-2.71
2022-11-18T17:14:12.407Z,-2.76
2022-11-18T17:16:39.071Z,-2.69
2022-11-18T17:19:11.633Z,-2.70
2022-11-18T17:21:38.812Z,-2.61
2022-11-18T17:24:05.841Z,-2.63
2022-11-18T17:26:32.290Z,-2.63
2022-11-18T17:28:58.737Z,-2.53
2022-11-18T17:31:25.990Z,-2.54
2022-11-18T17:33:55.176Z,-2.56
2022-11-18T17:36:24.061Z,-2.66
2022-11-18T17:38:52.608Z,-2.48
2022-11-18T17:41:39.887Z,-2.43
2022-11-18T17:44:08.688Z,-2.31
2022-11-18T17:46:38.284Z,-2.42
2022-11-18T17:49:13.749Z,-2.44
2022-11-18T17:51:40.661Z,-2.50
2022-11-18T17:54:07.887Z,-2.48
2022-11-18T17:56:34.537Z,-2.44
2022-11-18T17:59:01.166Z,-2.56
2022-11-18T18:01:27.800Z,-2.49
2022-11-18T18:03:54.332Z,-2.42
2022-11-18T18:06:21.446Z,-2.48
2022-11-18T18:08:47.836Z,-2.50
2022-11-18T18:11:19.133Z,-2.59
2022-11-18T18:14:04.112Z,-2.61
2022-11-18T18:16:32.348Z,-2.46
2022-11-18T18:18:59.927Z,-2.42
2022-11-18T18:21:27.179Z,-2.36
2022-11-18T18:23:54.085Z,-2.29
2022-11-18T18:26:20.580Z,-2.25
2022-11-18T18:28:47.863Z,-2.23
2022-11-18T18:31:16.325Z,-2.34
2022-11-18T18:33:43.199Z,-2.26
2022-11-18T18:36:12.657Z,-2.25
2022-11-18T18:38:40.375Z,-2.26
2022-11-18T18:41:09.704Z,-2.25
2022-11-18T18:43:36.220Z,-2.28
2022-11-18T18:46:23.267Z,-2.25
2022-11-18T18:48:49.752Z,-2.31
2022-11-18T18:51:17.098Z,-2.38
2022-11-18T18:53:43.953Z,-2.33
2022-11-18T18:56:10.626Z,-2.33
2022-11-18T18:58:37.430Z,-2.45
2022-11-18T19:01:11.260Z,-2.31
2022-11-18T19:03:38.158Z,-2.22
2022-11-18T19:06:41.915Z,-2.24
2022-11-18T19:09:01.141Z,-2.20
2022-11-18T19:11:46.656Z,-2.26
2022-11-18T19:14:16.249Z,-2.19
2022-11-18T19:16:43.010Z,-2.34
2022-11-18T19:19:13.771Z,-2.13
2022-11-18T19:21:40.308Z,-2.20
2022-11-18T19:24:23.155Z,-2.20
2022-11-18T19:26:55.306Z,-2.26
2022-11-18T19:29:25.585Z,-2.26
2022-11-18T19:31:52.327Z,-2.23
2022-11-18T19:34:19.053Z,-2.15
2022-11-18T19:36:45.722Z,-2.17
2022-11-18T19:39:12.286Z,-2.18
2022-11-18T19:41:38.690Z,-2.19
2022-11-18T19:44:05.831Z,-2.19
2022-11-18T19:46:32.307Z,-2.21
2022-11-18T19:48:59.045Z,-2.29
2022-11-18T19:51:25.852Z,-2.22
2022-11-18T19:53:57.014Z,-2.26
2022-11-18T19:56:26.113Z,-2.23
2022-11-18T19:58:54.782Z,-2.22
2022-11-18T20:01:27.480Z,-2.21
2022-11-18T20:03:57.628Z,-2.25
2022-11-18T20:06:25.951Z,-2.23
2022-11-18T20:08:53.663Z,-2.24
2022-11-18T20:11:21.470Z,-2.26
2022-11-18T20:13:48.213Z,-2.27
2022-11-18T20:16:17.794Z,-2.27
2022-11-18T20:18:47.493Z,-2.27
2022-11-18T20:21:19.824Z,-2.28
2022-11-18T20:23:51.794Z,-2.29
2022-11-18T20:26:20.554Z,-2.29
2022-11-18T20:28:52.971Z,-2.37
2022-11-18T20:31:23.131Z,-2.33
2022-11-18T20:33:51.755Z,-2.36
2022-11-18T20:36:23.992Z,-2.36
2022-11-18T20:38:55.907Z,-2.34
2022-11-18T20:41:23.500Z,-2.34
2022-11-18T20:43:50.198Z,-2.35
2022-11-18T20:46:20.749Z,-2.36
2022-11-18T20:48:48.750Z,-2.35
2022-11-18T20:51:23.470Z,-2.34
2022-11-18T20:53:51.090Z,-2.35
2022-11-18T20:56:19.811Z,-2.38
2022-11-18T20:58:46.282Z,-2.40
2022-11-18T21:01:15.792Z,-2.43
2022-11-18T21:03:47.337Z,-2.60
2022-11-18T21:06:14.691Z,-2.56
2022-11-18T21:08:42.643Z,-2.49
2022-11-18T21:11:12.565Z,-2.53
2022-11-18T21:13:58.161Z,-2.54
2022-11-18T21:16:25.963Z,-2.58
2022-11-18T21:18:52.473Z,-2.59
2022-11-18T21:21:37.845Z,-2.63
2022-11-18T21:24:04.547Z,-2.66
2022-11-18T21:26:32.604Z,-2.76
2022-11-18T21:29:01.255Z,-2.81
2022-11-18T21:31:29.181Z,-2.74
2022-11-18T21:33:56.941Z,-2.78
2022-11-18T21:36:25.284Z,-2.76
2022-11-18T21:38:52.164Z,-2.80
2022-11-18T21:41:19.125Z,-2.79
2022-11-18T21:46:34.780Z,-2.81
2022-11-18T21:49:02.035Z,-2.76
2022-11-18T21:51:28.564Z,-2.83
2022-11-18T21:53:55.147Z,-2.95
2022-11-18T21:56:25.070Z,-2.76
2022-11-18T21:58:52.590Z,-2.82
2022-11-18T22:01:24.525Z,-2.74
2022-11-18T22:03:56.031Z,-2.73
2022-11-18T22:06:24.453Z,-2.80
2022-11-18T22:08:52.004Z,-2.81
2022-11-18T22:11:20.334Z,-2.82
2022-11-18T22:13:47.031Z,-2.86
2022-11-18T22:16:16.280Z,-2.71
2022-11-18T22:18:45.064Z,-2.78
2022-11-18T22:21:20.370Z,-2.76
2022-11-18T22:23:47.589Z,-2.73
2022-11-18T22:26:21.411Z,-2.82
2022-11-18T22:28:53.473Z,-2.75
2022-11-18T22:31:21.467Z,-2.81
2022-11-18T22:33:49.640Z,-2.81
2022-11-18T22:36:17.786Z,-2.77
2022-11-18T22:38:45.136Z,-2.76
2022-11-18T22:41:35.714Z,-2.83
2022-11-18T22:44:07.435Z,-2.77
2022-11-18T22:46:36.133Z,-2.82
2022-11-18T22:49:02.719Z,-2.81
2022-11-18T22:51:29.174Z,-2.85
2022-11-18T22:54:16.000Z,-2.83
2022-11-18T22:56:42.326Z,-2.89
2022-11-18T22:59:10.595Z,-2.84
2022-11-18T23:01:37.069Z,-2.92
2022-11-18T23:04:03.661Z,-2.84
2022-11-18T23:06:30.272Z,-2.86
2022-11-18T23:08:56.709Z,-2.89
2022-11-18T23:11:41.369Z,-2.87
2022-11-18T23:14:10.012Z,-2.82
2022-11-18T23:16:39.446Z,-2.92
2022-11-18T23:19:11.961Z,-2.87
2022-11-18T23:21:38.384Z,-2.88
2022-11-18T23:24:05.515Z,-2.87
2022-11-18T23:26:32.169Z,-2.85
2022-11-18T23:28:58.921Z,-2.87
2022-11-18T23:31:27.035Z,-2.92
2022-11-18T23:33:55.317Z,-2.90
2022-11-18T23:36:22.537Z,-2.91
2022-11-18T23:38:49.264Z,-2.96
2022-11-18T23:41:18.845Z,-2.90
2022-11-18T23:43:47.166Z,-2.91
2022-11-18T23:46:14.719Z,-2.90
2022-11-18T23:48:42.775Z,-2.90
2022-11-18T23:51:10.480Z,-2.90
2022-11-18T23:53:38.136Z,-2.94
2022-11-18T23:56:07.858Z,-3.02
2022-11-18T23:58:34.262Z,-3.02
